Time;durP1;ratioP1;P1;durP2;ratioP2;P2;SDS_P1;SDS_P2;PMS_P1;PMS_P2;Temp;Humidity;BMP_temperature;BMP_pressure;BME280_temperature;BME280_humidity;BME280_pressure;Samples;Min_cycle;Max_cycle;Signal;HPM_P1;HPM_P2
2021/07/13 00:00:50;;;;;;;29.63;22.10;;;;;16.60;100478.00;;;;10489119;28;20196;-76
2021/07/13 00:05:52;;;;;;;30.23;22.60;;;;;16.60;100478.00;;;;10522460;28;20254;-76
2021/07/13 00:11:00;;;;;;;23.50;19.87;;;;;16.50;100492.00;;;;10490716;28;20193;-76
2021/07/13 00:16:03;;;;;;;26.53;20.10;;;;;16.50;100495.00;;;;10505224;28;20184;-76
2021/07/13 00:21:07;;;;;;;28.17;20.10;;;;;16.50;100487.00;;;;10521435;28;20551;-76
2021/07/13 00:26:09;;;;;;;24.30;18.27;;;;;16.50;100492.00;;;;10488384;28;20213;-75
2021/07/13 00:31:11;;;;;;;24.63;20.03;;;;;16.50;100491.00;;;;10422489;28;20675;-76
2021/07/13 00:36:13;;;;;;;24.43;19.23;;;;;16.40;100502.00;;;;10421542;28;20202;-76
2021/07/13 00:41:15;;;;;;;25.67;19.97;;;;;16.40;100496.00;;;;10438199;28;20187;-76
2021/07/13 00:46:17;;;;;;;29.30;20.37;;;;;16.30;100491.00;;;;10438301;28;20209;-76
2021/07/13 00:51:19;;;;;;;33.07;21.30;;;;;16.30;100493.00;;;;10422122;28;20225;-75
2021/07/13 00:56:21;;;;;;;24.93;20.20;;;;;16.30;100488.00;;;;10473194;28;20279;-76
2021/07/13 01:01:23;;;;;;;24.77;19.20;;;;;16.30;100483.00;;;;10462563;28;20194;-75
2021/07/13 01:06:33;;;;;;;28.40;20.87;;;;;16.30;100476.00;;;;10446288;28;20246;-76
2021/07/13 01:11:49;;;;;;;28.10;19.83;;;;;16.30;100479.00;;;;10462271;28;20244;-75
2021/07/13 01:17:01;;;;;;;32.83;23.60;;;;;16.30;100479.00;;;;10479148;28;20619;-76
2021/07/13 01:22:22;;;;;;;29.77;23.30;;;;;16.30;100478.00;;;;10480095;28;20227;-75
2021/07/13 01:27:49;;;;;;;26.57;21.07;;;;;16.30;100468.00;;;;10461813;28;20264;-75
2021/07/13 01:33:30;;;;;;;27.53;19.67;;;;;16.30;100467.00;;;;10482162;28;20214;-76
2021/07/13 01:38:39;;;;;;;27.97;20.43;;;;;16.30;100465.00;;;;10470082;28;20217;-75
2021/07/13 01:43:43;;;;;;;26.93;20.47;;;;;16.20;100470.00;;;;10469740;28;20275;-76
2021/07/13 01:48:48;;;;;;;26.03;19.40;;;;;16.10;100475.00;;;;10469470;28;20217;-75
2021/07/13 01:53:52;;;;;;;26.00;18.33;;;;;16.00;100464.00;;;;10485568;28;20197;-75
2021/07/13 01:58:56;;;;;;;30.43;19.00;;;;;16.00;100478.00;;;;10468851;28;20201;-75
2021/07/13 02:04:04;;;;;;;31.07;21.83;;;;;15.90;100461.00;;;;10468272;28;20293;-76
2021/07/13 02:09:09;;;;;;;33.63;23.30;;;;;15.80;100459.00;;;;10485099;28;20201;-75
2021/07/13 02:14:12;;;;;;;47.67;30.20;;;;;15.80;100466.00;;;;10485115;28;20196;-75
2021/07/13 02:19:14;;;;;;;42.53;28.30;;;;;15.70;100471.00;;;;10468283;28;20946;-76
2021/07/13 02:24:16;;;;;;;53.30;35.07;;;;;15.70;100467.00;;;;10450577;28;20251;-75
2021/07/13 02:29:24;;;;;;;55.27;34.70;;;;;15.70;100460.00;;;;10443331;28;20201;-75
2021/07/13 02:34:28;;;;;;;54.63;37.30;;;;;15.80;100476.00;;;;10442699;28;20202;-76
2021/07/13 02:39:33;;;;;;;55.07;34.90;;;;;15.80;100470.00;;;;10426378;28;20179;-76
2021/07/13 02:44:50;;;;;;;58.17;38.30;;;;;15.90;100467.00;;;;10410948;28;20217;-75
2021/07/13 02:49:52;;;;;;;54.73;36.97;;;;;16.00;100471.00;;;;10442686;28;20236;-75
2021/07/13 02:54:58;;;;;;;67.17;38.97;;;;;16.10;100455.00;;;;10465476;28;20198;-76
2021/07/13 03:00:01;;;;;;;49.77;34.60;;;;;16.10;100445.00;;;;10466504;28;20193;-75
2021/07/13 03:05:04;;;;;;;51.37;34.07;;;;;16.10;100444.00;;;;10466713;28;20213;-75
2021/07/13 03:10:07;;;;;;;50.33;33.73;;;;;16.10;100438.00;;;;10466539;28;20189;-76
2021/07/13 03:15:09;;;;;;;48.70;32.07;;;;;16.20;100442.00;;;;10482688;28;20254;-75
2021/07/13 03:20:11;;;;;;;51.80;33.83;;;;;16.20;100441.00;;;;10483064;28;20190;-76
2021/07/13 03:25:16;;;;;;;50.17;32.83;;;;;16.20;100438.00;;;;10440763;28;20565;-75
2021/07/13 03:30:19;;;;;;;52.40;32.07;;;;;16.20;100428.00;;;;10440831;28;20621;-75
2021/07/13 03:35:21;;;;;;;48.57;32.50;;;;;16.20;100434.00;;;;10441460;28;20629;-75
2021/07/13 03:40:26;;;;;;;47.53;32.00;;;;;16.20;100447.00;;;;10423681;28;20220;-76
2021/07/13 03:45:31;;;;;;;46.97;31.80;;;;;16.20;100448.00;;;;10440472;28;20633;-75
2021/07/13 03:50:34;;;;;;;52.27;36.30;;;;;16.20;100455.00;;;;10440392;28;20672;-76
2021/07/13 03:55:36;;;;;;;53.27;35.27;;;;;16.30;100457.00;;;;10442514;28;20220;-76
2021/07/13 04:00:39;;;;;;;57.77;38.40;;;;;16.30;100459.00;;;;10440423;28;20205;-75
2021/07/13 04:05:41;;;;;;;58.57;38.47;;;;;16.40;100469.00;;;;10439302;28;20293;-75
2021/07/13 04:10:43;;;;;;;57.53;37.70;;;;;16.40;100466.00;;;;10417662;28;20260;-76
2021/07/13 04:15:44;;;;;;;66.77;41.97;;;;;16.60;100473.00;;;;10422722;28;20190;-76
2021/07/13 04:20:47;;;;;;;70.68;44.72;;;;;16.70;100472.00;;;;10438993;28;20197;-76
2021/07/13 04:25:49;;;;;;;91.28;50.20;;;;;16.80;100452.00;;;;10449684;28;20242;-75
2021/07/13 04:30:51;;;;;;;90.55;50.45;;;;;16.90;100476.00;;;;10422631;28;20204;-75
2021/07/13 04:35:53;;;;;;;104.50;54.75;;;;;17.00;100474.00;;;;10439300;28;20573;-76
2021/07/13 04:40:55;;;;;;;113.80;56.47;;;;;17.10;100472.00;;;;10421942;28;20649;-76
2021/07/13 04:45:56;;;;;;;124.57;60.55;;;;;17.10;100474.00;;;;10425562;28;20263;-76
2021/07/13 04:50:58;;;;;;;151.10;63.35;;;;;17.10;100486.00;;;;10462995;28;20292;-76
2021/07/13 04:56:01;;;;;;;165.02;67.50;;;;;17.20;100492.00;;;;10421402;28;20198;-76
2021/07/13 05:01:03;;;;;;;156.95;66.57;;;;;17.30;100484.00;;;;10438183;28;20194;-76
2021/07/13 05:06:05;;;;;;;154.88;65.68;;;;;17.30;100481.00;;;;10440884;28;20267;-76
2021/07/13 05:11:07;;;;;;;166.32;67.63;;;;;17.40;100478.00;;;;10430079;28;20190;-76
2021/07/13 05:16:10;;;;;;;158.70;62.20;;;;;17.40;100483.00;;;;10446294;28;20198;-76
2021/07/13 05:21:13;;;;;;;182.18;71.45;;;;;17.40;100491.00;;;;10447925;28;20193;-76
2021/07/13 05:26:15;;;;;;;160.20;66.53;;;;;17.40;100489.00;;;;10438752;28;20695;-76
2021/07/13 05:31:17;;;;;;;179.18;67.38;;;;;17.40;100494.00;;;;10428838;28;20657;-76
2021/07/13 05:36:19;;;;;;;174.55;69.32;;;;;17.40;100502.00;;;;10485113;28;20212;-76
2021/07/13 05:41:22;;;;;;;213.50;74.78;;;;;17.50;100501.00;;;;10453661;28;20182;-76
2021/07/13 05:46:24;;;;;;;218.32;75.45;;;;;17.70;100482.00;;;;10486408;28;20213;-75
2021/07/13 05:51:26;;;;;;;210.88;70.07;;;;;17.80;100487.00;;;;10485689;28;20289;-75
2021/07/13 05:56:28;;;;;;;209.43;72.18;;;;;17.80;100484.00;;;;10475253;28;20186;-76
2021/07/13 06:01:30;;;;;;;201.02;73.68;;;;;17.90;100487.00;;;;10462753;28;20189;-76
2021/07/13 06:06:32;;;;;;;210.88;72.57;;;;;17.90;100492.00;;;;10445811;28;20205;-76
2021/07/13 06:11:34;;;;;;;234.32;77.35;;;;;18.00;100495.00;;;;10430341;28;20578;-76
2021/07/13 06:16:36;;;;;;;250.77;76.78;;;;;18.20;100499.00;;;;10487096;28;20715;-77
2021/07/13 06:21:38;;;;;;;259.65;80.85;;;;;18.20;100499.00;;;;10465777;28;20284;-76
2021/07/13 06:26:40;;;;;;;253.98;74.57;;;;;18.10;100509.00;;;;10437233;28;20209;-77
2021/07/13 06:31:42;;;;;;;233.35;73.80;;;;;18.10;100520.00;;;;10465483;28;20646;-76
2021/07/13 06:36:44;;;;;;;248.13;77.65;;;;;18.30;100518.00;;;;10444031;28;20195;-75
2021/07/13 06:41:46;;;;;;;235.75;72.88;;;;;18.50;100515.00;;;;10487416;28;20209;-76
2021/07/13 06:46:48;;;;;;;227.70;73.30;;;;;18.70;100496.00;;;;10452414;28;20208;-75
2021/07/13 06:51:50;;;;;;;203.90;70.40;;;;;18.90;100490.00;;;;10472977;28;20189;-76
2021/07/13 06:56:53;;;;;;;196.75;70.43;;;;;19.20;100501.00;;;;10464323;28;20193;-76
2021/07/13 07:01:55;;;;;;;187.75;71.18;;;;;19.40;100499.00;;;;10473593;28;20277;-76
2021/07/13 07:06:58;;;;;;;171.40;63.45;;;;;19.50;100505.00;;;;10464692;28;20217;-75
2021/07/13 07:12:00;;;;;;;156.63;63.83;;;;;19.50;100512.00;;;;10408398;28;20198;-75
2021/07/13 07:17:02;;;;;;;146.93;62.55;;;;;19.70;100506.00;;;;10438905;28;20297;-75
2021/07/13 07:22:04;;;;;;;123.50;57.35;;;;;20.10;100514.00;;;;10464829;28;20656;-75
2021/07/13 07:27:06;;;;;;;115.93;55.80;;;;;20.30;100506.00;;;;10450349;28;20237;-74
2021/07/13 07:32:08;;;;;;;112.30;55.50;;;;;20.60;100506.00;;;;10436646;28;20287;-74
2021/07/13 07:37:10;;;;;;;108.38;56.05;;;;;20.90;100499.00;;;;10454849;28;20194;-75
2021/07/13 07:42:12;;;;;;;104.38;54.47;;;;;20.80;100515.00;;;;10458832;28;20213;-74
2021/07/13 07:47:14;;;;;;;103.18;55.53;;;;;20.60;100531.00;;;;10441785;28;20213;-74
2021/07/13 07:52:16;;;;;;;102.97;54.78;;;;;20.50;100535.00;;;;10465293;28;20204;-74
2021/07/13 07:57:18;;;;;;;95.88;52.65;;;;;20.60;100531.00;;;;10432967;28;20649;-74
2021/07/13 08:02:20;;;;;;;108.55;56.38;;;;;20.80;100525.00;;;;10477033;28;20204;-74
2021/07/13 08:07:22;;;;;;;107.30;53.30;;;;;21.10;100526.00;;;;10446989;28;20243;-74
2021/07/13 08:12:24;;;;;;;107.22;53.70;;;;;21.30;100543.00;;;;10478618;28;20209;-74
2021/07/13 08:17:26;;;;;;;112.20;56.40;;;;;21.10;100550.00;;;;10429598;28;20186;-75
2021/07/13 08:22:29;;;;;;;105.45;55.03;;;;;21.00;100557.00;;;;10464345;28;20201;-74
2021/07/13 08:27:31;;;;;;;120.22;58.95;;;;;21.00;100543.00;;;;10475935;28;20198;-74
2021/07/13 08:32:33;;;;;;;109.45;54.88;;;;;21.10;100547.00;;;;10469252;28;20297;-74
2021/07/13 08:37:35;;;;;;;110.90;57.13;;;;;21.20;100532.00;;;;10475694;28;20240;-74
2021/07/13 08:42:43;;;;;;;111.38;57.45;;;;;21.10;100536.00;;;;10437126;28;20878;-74
2021/07/13 08:47:47;;;;;;;114.32;59.38;;;;;20.90;100531.00;;;;10464968;28;20206;-74
2021/07/13 08:52:49;;;;;;;113.35;58.08;;;;;20.80;100544.00;;;;10457306;28;20185;-74
2021/07/13 08:57:50;;;;;;;118.15;57.78;;;;;20.60;100540.00;;;;10472811;28;20240;-75
2021/07/13 09:03:06;;;;;;;110.38;57.80;;;;;21.00;100531.00;;;;10463713;28;20748;-74
2021/07/13 09:08:13;;;;;;;114.03;58.45;;;;;21.70;100543.00;;;;10476411;28;20206;-74
2021/07/13 09:13:24;;;;;;;103.10;57.53;;;;;22.40;100549.00;;;;10484339;28;20529;-74
2021/07/13 09:18:33;;;;;;;109.95;58.78;;;;;22.60;100561.00;;;;10437634;28;20281;-74
2021/07/13 09:23:56;;;;;;;101.05;58.13;;;;;22.20;100568.00;;;;10432222;28;20197;-74
2021/07/13 09:28:58;;;;;;;89.05;53.70;;;;;21.90;100567.00;;;;10467413;28;20783;-74
2021/07/13 09:34:02;;;;;;;95.88;57.88;;;;;22.00;100569.00;;;;10460475;28;20214;-74
2021/07/13 09:39:04;;;;;;;74.25;47.28;;;;;22.40;100562.00;;;;10471795;28;20534;-74
2021/07/13 09:44:10;;;;;;;74.55;49.63;;;;;22.80;100575.00;;;;10466416;28;20204;-74
2021/07/13 09:49:24;;;;;;;70.43;46.53;;;;;22.80;100573.00;;;;10441219;28;20201;-75
2021/07/13 09:54:46;;;;;;;64.88;44.15;;;;;22.70;100573.00;;;;10453545;28;20190;-75
2021/07/13 09:59:51;;;;;;;65.60;42.50;;;;;22.70;100566.00;;;;10466986;28;20189;-74
2021/07/13 10:04:56;;;;;;;64.07;42.17;;;;;22.70;100570.00;;;;10455358;28;20200;-75
2021/07/13 10:10:03;;;;;;;59.72;41.13;;;;;23.10;100557.00;;;;10468035;28;20549;-78
2021/07/13 10:15:06;;;;;;;59.25;40.55;;;;;23.30;100565.00;;;;10444509;28;20674;-77
2021/07/13 10:20:11;;;;;;;53.03;39.42;;;;;23.50;100563.00;;;;10474721;28;20204;-77
2021/07/13 10:25:13;;;;;;;55.25;40.90;;;;;23.80;100556.00;;;;10489154;28;20312;-77
2021/07/13 10:30:17;;;;;;;52.17;39.53;;;;;24.60;100552.00;;;;10452449;28;20214;-77
2021/07/13 10:35:31;;;;;;;50.22;39.70;;;;;25.30;100544.00;;;;10477985;28;20260;-76
2021/07/13 10:40:38;;;;;;;44.80;37.17;;;;;25.00;100547.00;;;;10467108;28;20191;-77
2021/07/13 10:45:42;;;;;;;48.17;39.58;;;;;24.60;100548.00;;;;10484572;28;20707;-77
2021/07/13 10:50:53;;;;;;;41.85;36.40;;;;;24.40;100550.00;;;;10436396;28;20210;-77
2021/07/13 10:55:58;;;;;;;43.53;37.38;;;;;24.20;100552.00;;;;10395610;28;20228;-77
2021/07/13 11:01:07;;;;;;;43.45;35.97;;;;;24.00;100554.00;;;;10433129;28;20228;-76
2021/07/13 11:06:17;;;;;;;40.42;35.03;;;;;24.20;100551.00;;;;10437475;28;20221;-77
2021/07/13 11:11:28;;;;;;;43.65;37.25;;;;;24.50;100548.00;;;;10439347;28;20281;-77
2021/07/13 11:16:32;;;;;;;43.08;37.17;;;;;24.40;100554.00;;;;10411160;28;20205;-77
2021/07/13 11:21:36;;;;;;;44.03;36.92;;;;;24.30;100543.00;;;;10431055;28;20308;-77
2021/07/13 11:26:42;;;;;;;45.92;38.08;;;;;24.40;100529.00;;;;10469519;28;20209;-77
2021/07/13 11:31:48;;;;;;;43.10;37.88;;;;;24.60;100537.00;;;;10451708;28;20192;-77
2021/07/13 11:36:54;;;;;;;42.85;37.60;;;;;24.80;100530.00;;;;10468044;28;20553;-77
2021/07/13 11:42:02;;;;;;;40.63;35.45;;;;;24.90;100528.00;;;;10467265;28;20204;-77
2021/07/13 11:47:12;;;;;;;45.45;37.53;;;;;24.10;100537.00;;;;10442474;28;20206;-77
2021/07/13 11:52:15;;;;;;;46.00;39.25;;;;;23.20;100547.00;;;;10425430;28;20194;-77
2021/07/13 11:57:20;;;;;;;46.72;39.38;;;;;22.60;100546.00;;;;10456982;28;20194;-77
2021/07/13 12:02:22;;;;;;;48.25;41.15;;;;;21.70;100546.00;;;;10441735;28;20195;-77
2021/07/13 12:07:24;;;;;;;51.85;41.70;;;;;21.00;100526.00;;;;10460770;28;20194;-78
2021/07/13 12:12:34;;;;;;;44.08;35.50;;;;;20.50;100517.00;;;;10441585;28;20194;-79
2021/07/13 12:17:38;;;;;;;60.17;40.95;;;;;20.00;100495.00;;;;10426300;28;20286;-78
2021/07/13 12:22:40;;;;;;;49.47;35.03;;;;;19.50;100497.00;;;;10397452;28;20216;-76
2021/07/13 12:27:41;;;;;;;45.65;35.70;;;;;19.50;100505.00;;;;10462288;28;20247;-77
2021/07/13 12:32:43;;;;;;;58.55;45.53;;;;;19.40;100502.00;;;;10475887;28;20213;-77
2021/07/13 12:37:49;;;;;;;74.50;52.13;;;;;19.60;100504.00;;;;10449754;28;20557;-77
2021/07/13 12:42:50;;;;;;;74.40;50.88;;;;;20.00;100502.00;;;;10441356;28;20206;-77
2021/07/13 12:47:54;;;;;;;63.80;44.92;;;;;20.30;100493.00;;;;10425508;28;20210;-77
2021/07/13 12:53:13;;;;;;;64.82;46.20;;;;;20.00;100506.00;;;;10460366;28;20244;-77
2021/07/13 12:58:26;;;;;;;70.97;47.88;;;;;20.00;100521.00;;;;10460930;28;20666;-77
2021/07/13 13:03:34;;;;;;;62.33;44.10;;;;;20.30;100510.00;;;;10464711;28;20953;-76
2021/07/13 13:08:37;;;;;;;56.15;41.42;;;;;20.60;100515.00;;;;10453383;28;20597;-77
2021/07/13 13:13:43;;;;;;;52.60;39.42;;;;;20.80;100521.00;;;;10474842;28;20222;-77
2021/07/13 13:18:45;;;;;;;58.08;40.53;;;;;20.90;100527.00;;;;10442947;28;20633;-76
2021/07/13 13:23:50;;;;;;;54.53;39.63;;;;;20.70;100528.00;;;;10457382;28;20296;-77
2021/07/13 13:28:53;;;;;;;63.60;42.83;;;;;20.80;100530.00;;;;10458793;28;20202;-76
2021/07/13 13:33:56;;;;;;;60.80;44.17;;;;;20.90;100543.00;;;;10477371;28;20213;-76
2021/07/13 13:39:05;;;;;;;60.33;43.95;;;;;21.00;100542.00;;;;10475564;28;20269;-76
2021/07/13 13:44:07;;;;;;;64.45;44.42;;;;;21.20;100542.00;;;;10446999;28;20205;-76
2021/07/13 13:49:09;;;;;;;62.17;43.97;;;;;21.10;100534.00;;;;10447001;28;20324;-76
2021/07/13 13:54:11;;;;;;;60.58;44.08;;;;;22.20;100524.00;;;;10502760;28;20193;-76
2021/07/13 13:59:13;;;;;;;53.40;41.35;;;;;22.80;100537.00;;;;10459913;28;20182;-76
2021/07/13 14:04:14;;;;;;;47.35;37.42;;;;;22.60;100544.00;;;;10473834;28;20190;-77
2021/07/13 14:09:16;;;;;;;40.40;28.92;;;;;22.20;100546.00;;;;10494309;28;20210;-76
2021/07/13 14:14:18;;;;;;;39.58;33.40;;;;;21.60;100553.00;;;;10469936;28;20526;-77
2021/07/13 14:19:20;;;;;;;43.08;32.42;;;;;21.20;100559.00;;;;10476766;28;20225;-76
2021/07/13 14:24:22;;;;;;;41.17;32.92;;;;;21.10;100551.00;;;;10456389;28;20194;-76
2021/07/13 14:29:24;;;;;;;42.00;32.90;;;;;21.20;100536.00;;;;10459970;28;20206;-76
2021/07/13 14:34:26;;;;;;;47.08;36.70;;;;;21.40;100531.00;;;;10434473;28;20220;-75
2021/07/13 14:39:28;;;;;;;48.90;38.80;;;;;21.40;100532.00;;;;10456552;28;20194;-75
2021/07/13 14:44:30;;;;;;;57.45;41.10;;;;;21.60;100534.00;;;;10425957;28;20198;-76
2021/07/13 14:49:33;;;;;;;58.00;41.28;;;;;21.30;100524.00;;;;10436402;28;20231;-75
2021/07/13 14:54:36;;;;;;;59.05;42.05;;;;;21.50;100525.00;;;;10473093;28;20201;-74
2021/07/13 14:59:38;;;;;;;62.53;44.40;;;;;21.20;100513.00;;;;10499774;28;20190;-75
2021/07/13 15:04:40;;;;;;;64.80;44.20;;;;;20.70;100516.00;;;;10455262;28;20243;-75
2021/07/13 15:09:42;;;;;;;60.35;44.42;;;;;20.10;100531.00;;;;10433797;28;20210;-76
2021/07/13 15:14:44;;;;;;;58.28;42.40;;;;;19.80;100531.00;;;;10446151;28;20194;-77
2021/07/13 15:19:46;;;;;;;61.38;44.78;;;;;20.00;100532.00;;;;10439715;28;20182;-76
2021/07/13 15:24:48;;;;;;;51.83;38.00;;;;;19.90;100534.00;;;;10460708;28;20662;-75
2021/07/13 15:29:50;;;;;;;53.05;40.38;;;;;19.70;100526.00;;;;10478950;28;20209;-75
2021/07/13 15:34:52;;;;;;;52.72;39.80;;;;;19.40;100542.00;;;;10440632;28;20681;-75
2021/07/13 15:39:55;;;;;;;61.50;45.50;;;;;19.70;100550.00;;;;10440616;28;20179;-75
2021/07/13 15:44:57;;;;;;;62.58;43.55;;;;;19.70;100544.00;;;;10430077;28;20209;-75
2021/07/13 15:49:58;;;;;;;54.88;38.20;;;;;19.80;100521.00;;;;10463825;28;20206;-75
2021/07/13 15:55:04;;;;;;;53.63;41.65;;;;;19.90;100537.00;;;;10459861;28;20190;-75
2021/07/13 16:00:07;;;;;;;55.33;41.13;;;;;19.80;100552.00;;;;10452985;28;20633;-77
2021/07/13 16:05:10;;;;;;;54.92;41.22;;;;;19.50;100544.00;;;;10455301;28;20193;-76
2021/07/13 16:10:16;;;;;;;53.10;38.05;;;;;19.30;100541.00;;;;10461973;28;20206;-76
2021/07/13 16:15:18;;;;;;;55.45;41.53;;;;;19.10;100552.00;;;;10416216;28;20247;-76
2021/07/13 16:20:20;;;;;;;54.40;36.40;;;;;18.90;100542.00;;;;10460334;28;20215;-76
2021/07/13 16:25:24;;;;;;;52.35;36.85;;;;;18.70;100560.00;;;;10429712;28;20284;-76
2021/07/13 16:30:27;;;;;;;53.60;37.63;;;;;18.60;100565.00;;;;10439216;28;20202;-76
2021/07/13 16:35:29;;;;;;;51.58;39.00;;;;;18.50;100571.00;;;;10405919;28;20221;-76
2021/07/13 16:40:31;;;;;;;55.33;39.55;;;;;18.40;100572.00;;;;10451632;28;20194;-76
2021/07/13 16:45:33;;;;;;;51.40;37.60;;;;;18.40;100574.00;;;;10411338;28;20206;-76
2021/07/13 16:50:36;;;;;;;48.55;37.40;;;;;18.30;100571.00;;;;10437712;28;20670;-76
2021/07/13 16:55:38;;;;;;;48.55;33.95;;;;;18.30;100565.00;;;;10464109;28;20723;-76
2021/07/13 17:00:40;;;;;;;54.40;36.28;;;;;18.20;100567.00;;;;10447029;28;20702;-76
2021/07/13 17:05:42;;;;;;;50.60;35.60;;;;;18.20;100570.00;;;;10407866;28;20194;-80
2021/07/13 17:10:44;;;;;;;48.45;34.95;;;;;18.10;100575.00;;;;10432048;28;20213;-77
2021/07/13 17:15:45;;;;;;;53.05;34.97;;;;;18.00;100570.00;;;;10444001;28;20194;-77
2021/07/13 17:20:49;;;;;;;48.97;36.28;;;;;18.10;100572.00;;;;10484581;28;20193;-77
2021/07/13 17:25:51;;;;;;;50.22;34.75;;;;;17.90;100580.00;;;;10426160;28;20204;-76
2021/07/13 17:30:53;;;;;;;42.60;31.75;;;;;17.80;100581.00;;;;10449616;28;20209;-76
2021/07/13 17:35:55;;;;;;;45.33;30.65;;;;;17.80;100562.00;;;;10461328;28;20209;-75
2021/07/13 17:40:57;;;;;;;40.25;33.28;;;;;17.80;100573.00;;;;10445703;28;20192;-76
2021/07/13 17:45:59;;;;;;;35.67;27.75;;;;;17.90;100580.00;;;;10461166;28;20271;-76
2021/07/13 17:51:01;;;;;;;40.00;31.40;;;;;17.90;100591.00;;;;10402242;28;20356;-76
2021/07/13 17:56:03;;;;;;;44.13;31.55;;;;;17.80;100599.00;;;;10432357;28;20198;-76
2021/07/13 18:01:05;;;;;;;43.80;32.65;;;;;17.80;100606.00;;;;10426609;28;20598;-76
2021/07/13 18:06:10;;;;;;;45.47;34.13;;;;;17.70;100614.00;;;;10460631;28;20199;-76
2021/07/13 18:11:14;;;;;;;39.58;30.98;;;;;17.70;100619.00;;;;10453613;28;20195;-75
2021/07/13 18:16:16;;;;;;;36.88;29.02;;;;;17.60;100614.00;;;;10448825;28;20561;-77
2021/07/13 18:21:18;;;;;;;33.63;28.05;;;;;17.50;100607.00;;;;10486996;28;20296;-78
2021/07/13 18:26:20;;;;;;;38.35;28.88;;;;;17.50;100614.00;;;;10461821;28;20323;-77
2021/07/13 18:31:22;;;;;;;36.38;29.42;;;;;17.40;100608.00;;;;10472805;28;20206;-77
2021/07/13 18:36:24;;;;;;;40.00;27.70;;;;;17.30;100613.00;;;;10428457;28;20288;-77
2021/07/13 18:41:27;;;;;;;36.20;28.38;;;;;17.30;100612.00;;;;10456024;28;20271;-77
2021/07/13 18:46:28;;;;;;;43.22;30.75;;;;;17.30;100613.00;;;;10451590;28;20202;-76
2021/07/13 18:51:30;;;;;;;41.95;29.85;;;;;17.30;100613.00;;;;10451744;28;20224;-76
2021/07/13 18:56:32;;;;;;;36.55;27.75;;;;;17.20;100618.00;;;;10446966;28;20214;-76
2021/07/13 19:01:34;;;;;;;31.52;25.13;;;;;17.20;100633.00;;;;10481171;28;20642;-77
2021/07/13 19:06:36;;;;;;;33.88;25.40;;;;;17.10;100623.00;;;;10468223;28;20213;-77
2021/07/13 19:11:38;;;;;;;33.47;24.08;;;;;17.10;100630.00;;;;10463706;28;20194;-77
2021/07/13 19:16:40;;;;;;;32.95;22.23;;;;;17.00;100629.00;;;;10467003;28;20181;-77
2021/07/13 19:21:43;;;;;;;33.08;23.17;;;;;16.90;100617.00;;;;10483732;28;20203;-76
2021/07/13 19:26:46;;;;;;;32.53;22.58;;;;;16.80;100620.00;;;;10483149;28;20239;-76
2021/07/13 19:31:53;;;;;;;32.70;21.75;;;;;16.70;100615.00;;;;10491187;28;20293;-76
2021/07/13 19:42:15;;;;;;;32.20;20.90;;;;;16.60;100608.00;;;;10506348;28;20209;-76
2021/07/13 19:47:17;;;;;;;30.60;22.60;;;;;16.60;100632.00;;;;10500480;28;20206;-76
2021/07/13 19:52:19;;;;;;;34.43;22.37;;;;;16.60;100631.00;;;;10477931;28;20240;-76
2021/07/13 19:57:21;;;;;;;32.20;20.55;;;;;16.50;100641.00;;;;10499677;28;20193;-76
2021/07/13 20:02:23;;;;;;;32.50;22.77;;;;;16.50;100653.00;;;;10451960;28;20227;-76
2021/07/13 20:07:25;;;;;;;35.53;23.17;;;;;16.50;100656.00;;;;10520529;28;20235;-76
2021/07/13 20:12:27;;;;;;;35.47;24.13;;;;;16.50;100648.00;;;;10493570;28;20209;-76
2021/07/13 20:17:29;;;;;;;35.13;22.80;;;;;16.60;100657.00;;;;10469755;28;20194;-76
2021/07/13 20:22:45;;;;;;;38.38;23.02;;;;;16.60;100658.00;;;;10489145;28;20776;-76
2021/07/13 20:27:57;;;;;;;30.73;21.17;;;;;16.50;100651.00;;;;10475674;28;20312;-76
2021/07/13 20:32:59;;;;;;;29.08;21.05;;;;;16.50;100650.00;;;;10499116;28;20220;-75
2021/07/13 20:38:01;;;;;;;33.72;19.42;;;;;16.60;100639.00;;;;10464846;28;20231;-76
2021/07/13 20:43:03;;;;;;;37.70;23.73;;;;;16.60;100634.00;;;;10459437;28;20204;-76
2021/07/13 20:48:05;;;;;;;32.58;23.13;;;;;16.60;100640.00;;;;10478356;28;20733;-76
2021/07/13 20:53:07;;;;;;;35.13;22.75;;;;;16.60;100640.00;;;;10525615;28;20189;-76
2021/07/13 20:58:09;;;;;;;41.97;25.33;;;;;16.60;100636.00;;;;10508077;28;20189;-75
2021/07/13 21:03:11;;;;;;;43.45;27.05;;;;;16.60;100643.00;;;;10493243;28;20271;-76
2021/07/13 21:08:13;;;;;;;44.63;29.10;;;;;16.60;100641.00;;;;10472325;28;20205;-76
2021/07/13 21:13:15;;;;;;;46.92;28.48;;;;;16.60;100654.00;;;;10491231;28;20227;-76
2021/07/13 21:18:17;;;;;;;48.92;35.88;;;;;16.60;100639.00;;;;10500405;28;20185;-76
2021/07/13 21:23:20;;;;;;;52.50;33.25;;;;;16.60;100646.00;;;;10515707;28;20204;-76
2021/07/13 21:28:21;;;;;;;53.90;35.05;;;;;16.60;100647.00;;;;10504880;28;20233;-76
2021/07/13 21:33:23;;;;;;;55.70;34.20;;;;;16.60;100646.00;;;;10469532;28;20267;-76
2021/07/13 21:38:26;;;;;;;48.60;29.15;;;;;16.60;100640.00;;;;10495615;28;20272;-76
2021/07/13 21:43:27;;;;;;;46.47;32.35;;;;;16.50;100648.00;;;;10488729;28;20643;-75
2021/07/13 21:48:29;;;;;;;47.63;32.05;;;;;16.50;100644.00;;;;10507686;28;20217;-76
2021/07/13 21:53:31;;;;;;;45.35;30.73;;;;;16.50;100645.00;;;;10477779;28;20262;-76
2021/07/13 21:58:33;;;;;;;46.33;29.80;;;;;16.50;100642.00;;;;10479578;28;20190;-75
2021/07/13 22:03:35;;;;;;;47.20;31.45;;;;;16.50;100646.00;;;;10481780;28;20190;-76
2021/07/13 22:08:37;;;;;;;52.35;33.00;;;;;16.50;100639.00;;;;10488674;28;20221;-76
2021/07/13 22:13:39;;;;;;;42.22;29.67;;;;;16.50;100645.00;;;;10523264;28;20652;-76
2021/07/13 22:18:41;;;;;;;51.53;32.50;;;;;16.40;100648.00;;;;10473050;28;20201;-76
2021/07/13 22:23:43;;;;;;;45.47;29.03;;;;;16.40;100651.00;;;;10522951;28;20200;-76
2021/07/13 22:28:45;;;;;;;47.13;29.27;;;;;16.40;100651.00;;;;10522799;28;20204;-76
2021/07/13 22:33:47;;;;;;;41.28;26.48;;;;;16.40;100644.00;;;;10473443;28;20225;-76
2021/07/13 22:38:48;;;;;;;33.10;21.53;;;;;16.40;100654.00;;;;10530050;28;20197;-76
2021/07/13 22:43:50;;;;;;;35.75;24.40;;;;;16.40;100649.00;;;;10488912;28;20216;-76
2021/07/13 22:48:52;;;;;;;40.22;25.52;;;;;16.40;100662.00;;;;10496562;28;20197;-75
2021/07/13 22:53:54;;;;;;;39.72;24.88;;;;;16.30;100658.00;;;;10510836;28;20186;-75
2021/07/13 22:58:56;;;;;;;38.95;25.10;;;;;16.30;100668.00;;;;10503886;28;20663;-75
2021/07/13 23:03:58;;;;;;;36.72;20.20;;;;;16.30;100669.00;;;;10542282;28;20197;-75
2021/07/13 23:09:00;;;;;;;35.17;22.87;;;;;16.30;100676.00;;;;10492665;28;20209;-76
2021/07/13 23:14:03;;;;;;;35.70;22.40;;;;;16.30;100677.00;;;;10466789;28;20197;-76
2021/07/13 23:19:13;;;;;;;36.28;21.75;;;;;16.30;100671.00;;;;10466433;28;20194;-76
2021/07/13 23:24:14;;;;;;;31.00;19.45;;;;;16.20;100666.00;;;;10499952;28;20583;-76
2021/07/13 23:29:17;;;;;;;31.95;17.58;;;;;16.20;100664.00;;;;10482680;28;20672;-76
2021/07/13 23:34:18;;;;;;;34.15;20.02;;;;;16.20;100661.00;;;;10501551;28;20736;-76
2021/07/13 23:39:20;;;;;;;33.20;18.27;;;;;16.20;100684.00;;;;10450593;28;20190;-76
2021/07/13 23:44:26;;;;;;;31.77;20.53;;;;;16.20;100676.00;;;;10481477;28;20276;-76
2021/07/13 23:49:28;;;;;;;28.33;18.63;;;;;16.10;100688.00;;;;10432161;28;20223;-76
2021/07/13 23:54:30;;;;;;;31.05;21.30;;;;;16.00;100683.00;;;;10434467;28;20205;-76
2021/07/13 23:59:32;;;;;;;30.27;19.90;;;;;16.00;100679.00;;;;10431280;28;20185;-76
